AirNav   Everest Fuels
 
 1596 users online  

9GA1 Briar Patch Airport
Clyo, Georgia, USA

GOING TO CLYO?


FAA INFORMATION EFFECTIVE 17 JUNE 2021

Location

FAA Identifier: 9GA1
Lat/Long: 32-26-56.0000N 081-20-13.0000W
32-26.933333N 081-20.216667W
32.4488889,-81.3369444
(estimated)
Elevation: 100 ft. / 30 m (estimated)
Variation: 05W (1995)
From city: 4 miles SW of CLYO, GA
Time zone: UTC -4 (UTC -5 during Standard Time)
Zip code: 31303

Airport Operations

Airport use: Private use. Permission required prior to landing
Activation date: 02/1998
Control tower: no
ARTCC: JACKSONVILLE CENTER
FSS: MACON FLIGHT SERVICE STATION
Attendance: UNATNDD
Wind indicator: yes
Segmented circle: no

Airport Communications

WX AWOS-3 at JYL (18 nm NW): 118.875 (912-857-9000)

Nearby radio navigation aids

VOR radial/distance  VOR name  Freq  Var
SAVr345/19.5SAVANNAH VORTAC115.9506W
SVNr341/28.0HUNTER VOR/DME111.6002W
ALDr185/(33.9)ALLENDALE VOR116.7001W

 
NDB name  Hdg/Dist  Freq  Var  ID
SYLVANIA140/17.724507WJYL .--- -.-- .-..
MC INTOSH017/38.126304WMOQ -- --- --.-

Airport Services

Runway Information

Runway 16/34

Dimensions: 2600 x 100 ft. / 792 x 30 m
Surface: turf, in good condition
RUNWAY 16  RUNWAY 34
Traffic pattern: leftleft

Airport Ownership and Management from official FAA records

Ownership: Privately-owned
Owner: TIM O'NEILL
547 GREEN MORGAN SCHOOL ROAD
CLYO, GA 31303
Phone (912) 754-7547
Manager: TIM O'NEILL
547 GREEN MORGAN SCHOOL ROAD
CLYO, GA 31303
Phone (912) 754-7547

Airport Operational Statistics

Aircraft based on the field: 7
Single engine airplanes: 3
Ultralights: 4
    

Additional Remarks

FOR CD CTC SAVANNAH APCH AT 912-964-3205, WHEN APCH CLSD CTC JACKSONVILLE ARTCC AT 904-845-1592.

Instrument Procedures

There are no published instrument procedures at 9GA1.

Some nearby airports with instrument procedures:

KJYL - Plantation Airpark (18 nm NW)
KTBR - Statesboro-Bulloch County Airport (20 nm W)
KSAV - Savannah/Hilton Head International Airport (20 nm S)
KSVN - Hunter Army Airfield (28 nm S)
KCWV - Claxton-Evans County Airport (31 nm SW)
 
Loc | Ops | Rwys | IFR | FBO | Links
Com | Nav | Svcs | Stats | Notes
Area around 9GA1 (Briar Patch Airport)
 
Road maps at: MapQuest Bing Google
 
Aerial photo
WARNING: Photo may not be current or correct
Aerial photo of 9GA1 (Briar Patch Airport)
Photo taken 20-Aug-2005

Do you have a better or more recent aerial photo of Briar Patch Airport that you would like to share? If so, please send us your photo.

 
Sectional chart

 
Airport distance calculator
Flying to Briar Patch Airport? Find the distance to fly.

From to 9GA1

Sunrise and sunset
Times for 21-Jun-2021
 Local
(UTC-4)
 Zulu
(UTC)
Morning civil twilight05:5109:51
Sunrise06:2010:20
Sunset20:3500:35
Evening civil twilight21:0301:03

Current date and time
Zulu (UTC)  21-Jun-2021 16:19:01
Local (UTC-4)  21-Jun-2021 12:19:01
 
METAR
KJYL 
18nm NW 
211555Z AUTO 26008KT 10SM BKN024 BKN030 29/23 A3001 RMK AO2 T02880232
KTBR 
20nm W 
211555Z AUTO 24007KT 200V290 10SM BKN024 28/22 A3000 RMK AO2 LTG DSNT SW T02810217
KSAV 
21nm S 
211553Z 24013G22KT 10SM FEW033 SCT090 31/22 A3000 RMK AO2 SLP158 T03110222
KSVN 
28nm S 
211556Z AUTO 25008G18KT 10SM CLR 32/22 A2998 RMK AO2 SLP155 T03190217 $
KCWV 
31nm SW 
211555Z AUTO 29007KT 250V310 7SM SCT028 SCT036 30/23 A3001 RMK AO2 LTG DSNT SW T03020225
KNBC 
31nm E 
211556Z AUTO 27009G20KT CLR 32/23 A2999 RMK AO2 SLP154 T03170233 $
KAQX 
33nm N 
211555Z AUTO 00000G10KT 10SM OVC018 27/24 A2999 RMK AO2
KHXD 
35nm E 
211550Z 27011G18KT 9SM CLR 31/23 A3000
TAF
KSAV 
21nm S 
202018Z 2020/2118 21014G22KT 6SM SHRA SCT015 SCT025 BKN040 TEMPO 2100/2103 VRB22G32KT 2SM TSRA OVC025CB FM210300 23012G20KT 4SM SHRA SCT008 OVC020 FM210500 24011G17KT P6SM VCSH SCT008 OVC020 FM210800 24011G17KT P6SM SCT008 OVC020
NOTAMs
Click for the latest NOTAMs
NOTAMs are issued by the DoD/FAA and will open in a separate window not controlled by AirNav.

 

 
 

Would you like to see your business listed on this page?

 If your business provides an interesting product or service to pilots, flight crews, aircraft, or users of the Briar Patch Airport, you should consider listing it here.  To start the listing process, click on the button below
 
Add a business
 

Other Pages about Briar Patch Airport

Update a link
 
Copyright © AirNav, LLC. All rights reserved. Privacy Policy  Contact